This is the latest recevied weather packets stored in our database for station/object KJ5JYX. If no packets are shown the sender has not sent any weather packets the latest 10 day(s).
| Time | Temp. | Humidity | Pressure | Rain* | Wind** | Luminosity | Snow |
|---|---|---|---|---|---|---|---|
| 1778002856 | 28.33° C | 73% | 1009.3 hPa | 0 mm | - | 690 W/m² | - |
| 1778002553 | 27.78° C | 72% | 1009.3 hPa | 0 mm | - | 681 W/m² | - |
| 1778002250 | 27.78° C | 72% | 1009.5 hPa | 0 mm | - | 611 W/m² | - |
| 1778001948 | 27.22° C | 74% | 1009.6 hPa | 0 mm | - | 675 W/m² | - |
| 1778001644 | 27.78° C | 74% | 1009.6 hPa | 0 mm | - | 741 W/m² | - |
| 1778001339 | 27.78° C | 72% | 1009.6 hPa | 0 mm | - | 607 W/m² | - |
| 1778001036 | 27.78° C | 74% | 1009.5 hPa | 0 mm | - | 650 W/m² | - |
| 1778000733 | 26.67° C | 77% | 1009.6 hPa | 0 mm | - | 690 W/m² | - |
| 1778000429 | 27.22° C | 74% | 1009.7 hPa | 0 mm | - | 741 W/m² | - |
| 1778000125 | 27.22° C | 76% | 1009.7 hPa | 0 mm | - | 476 W/m² | - |
| 1777999821 | 27.22° C | 75% | 1009.8 hPa | 0 mm | - | 202 W/m² | - |
| 1777999517 | 26.67° C | 75% | 1009.7 hPa | 0 mm | - | 362 W/m² | - |
| 1777999215 | 27.22° C | 76% | 1009.7 hPa | 0 mm | - | 778 W/m² | - |
| 1777998913 | 26.11° C | 77% | 1009.7 hPa | 0 mm | - | 644 W/m² | - |
| 1777998610 | 25.56° C | 80% | 1009.9 hPa | 0 mm | - | 617 W/m² | - |
| 1777998303 | 26.11° C | 76% | 1009.7 hPa | 0 mm | - | 278 W/m² | - |
| 1777998000 | 25.56° C | 79% | 1009.8 hPa | 0 mm | - | 506 W/m² | - |
| 1777997696 | 25.56° C | 79% | 1009.6 hPa | 0 mm | - | 277 W/m² | - |
| 1777997393 | 25.56° C | 79% | 1009.7 hPa | 0 mm | - | 304 W/m² | - |
| 1777997092 | 25° C | 80% | 1009.9 hPa | 0 mm | - | 311 W/m² | - |
| 1777996788 | 25° C | 80% | 1009.9 hPa | 0 mm | - | 210 W/m² | - |
| 1777996485 | 24.44° C | 81% | 1009.8 hPa | 0 mm | - | 236 W/m² | - |
| 1777996182 | 24.44° C | 81% | 1009.9 hPa | 0 mm | - | 250 W/m² | - |
| 1777995878 | 24.44° C | 82% | 1009.6 hPa | 0 mm | - | 199 W/m² | - |
| 1777995574 | 23.89° C | 83% | 1009.7 hPa | 0 mm | - | 210 W/m² | - |
* Rain latest hour (hover to see other rain measurements)
** Current wind speed in m/s (hover to see current wind gust speed)